createdAt,value
2023-05-06T00:01:30.734Z,85.52
2023-05-06T00:03:52.450Z,84.78
2023-05-06T00:06:14.089Z,84.45
2023-05-06T00:08:35.884Z,84.08
2023-05-06T00:10:57.342Z,84.57
2023-05-06T00:13:18.889Z,86.30
2023-05-06T00:15:40.545Z,85.75
2023-05-06T00:18:02.199Z,87.53
2023-05-06T00:20:23.783Z,87.03
2023-05-06T00:22:45.272Z,86.18
2023-05-06T00:25:07.115Z,85.73
2023-05-06T00:27:28.797Z,85.51
2023-05-06T00:29:50.569Z,86.41
2023-05-06T00:32:12.077Z,88.13
2023-05-06T00:34:33.549Z,86.65
2023-05-06T00:36:54.988Z,86.43
2023-05-06T00:39:16.803Z,86.85
2023-05-06T00:41:38.253Z,86.57
2023-05-06T00:43:59.821Z,87.17
2023-05-06T00:46:21.324Z,87.96
2023-05-06T00:48:44.499Z,87.67
2023-05-06T00:51:06.249Z,87.25
2023-05-06T00:53:27.748Z,88.93
2023-05-06T00:55:51.271Z,89.74
2023-05-06T00:58:13.834Z,88.62
2023-05-06T01:00:35.624Z,87.66
2023-05-06T01:02:57.179Z,87.11
2023-05-06T01:05:22.508Z,87.03
2023-05-06T01:07:59.524Z,86.68
2023-05-06T01:10:34.027Z,86.49
2023-05-06T01:13:11.520Z,87.11
2023-05-06T01:15:41.962Z,86.61
2023-05-06T01:18:10.721Z,86.37
2023-05-06T01:20:33.622Z,87.42
2023-05-06T01:22:56.011Z,88.41
2023-05-06T01:25:21.928Z,88.22
2023-05-06T01:27:43.361Z,88.51
2023-05-06T01:30:05.234Z,88.52
2023-05-06T01:32:59.121Z,87.23
2023-05-06T01:35:48.045Z,86.42
2023-05-06T01:38:21.238Z,86.37
2023-05-06T01:40:46.860Z,86.05
2023-05-06T01:43:08.839Z,86.25
2023-05-06T01:45:31.987Z,87.08
2023-05-06T01:47:54.010Z,87.03
2023-05-06T01:50:15.692Z,87.24
2023-05-06T01:52:37.149Z,87.60
2023-05-06T01:54:58.611Z,87.74
2023-05-06T01:57:20.172Z,87.16
2023-05-06T01:59:41.636Z,86.96
2023-05-06T02:02:03.170Z,89.73
2023-05-06T02:04:25.062Z,89.02
2023-05-06T02:06:46.553Z,87.80
2023-05-06T02:09:07.972Z,90.93
2023-05-06T02:11:29.460Z,91.69
2023-05-06T02:13:50.917Z,89.80
2023-05-06T02:16:12.458Z,88.85
2023-05-06T02:18:34.210Z,88.09
2023-05-06T02:20:55.852Z,90.13
2023-05-06T02:23:17.277Z,91.04
2023-05-06T02:25:38.795Z,89.88
2023-05-06T02:28:00.353Z,88.79
2023-05-06T02:30:21.850Z,88.34
2023-05-06T02:32:43.307Z,87.96
2023-05-06T02:35:05.229Z,89.27
2023-05-06T02:37:26.691Z,90.13
2023-05-06T02:39:48.169Z,89.90
2023-05-06T02:42:10.691Z,89.49
2023-05-06T02:44:32.156Z,88.89
2023-05-06T02:46:53.612Z,88.01
2023-05-06T02:49:15.053Z,87.53
2023-05-06T02:51:36.609Z,86.90
2023-05-06T02:53:58.040Z,87.80
2023-05-06T02:56:19.471Z,88.43
2023-05-06T02:58:40.979Z,87.60
2023-05-06T03:01:02.579Z,87.02
2023-05-06T03:03:24.047Z,86.72
2023-05-06T03:05:45.757Z,86.43
2023-05-06T03:08:07.212Z,86.29
2023-05-06T03:10:28.814Z,87.36
2023-05-06T03:12:50.598Z,86.50
2023-05-06T03:15:12.392Z,86.02
2023-05-06T03:17:34.105Z,85.99
2023-05-06T03:19:55.710Z,85.56
2023-05-06T03:22:17.158Z,85.54
2023-05-06T03:24:38.609Z,85.76
2023-05-06T03:27:00.063Z,85.80
2023-05-06T03:29:21.514Z,86.38
2023-05-06T03:31:43.183Z,85.96
2023-05-06T03:34:04.730Z,89.00
2023-05-06T03:36:27.231Z,89.18
2023-05-06T03:38:48.656Z,88.48
2023-05-06T03:41:10.161Z,92.49
2023-05-06T03:43:31.621Z,90.50
2023-05-06T03:45:53.160Z,90.39
2023-05-06T03:48:14.708Z,94.31
2023-05-06T03:50:36.209Z,93.53
2023-05-06T03:52:57.739Z,94.95
2023-05-06T03:55:19.239Z,93.15
2023-05-06T03:57:40.713Z,95.16
2023-05-06T04:00:02.196Z,93.55
2023-05-06T04:02:23.926Z,96.59
2023-05-06T04:04:45.484Z,98.84
2023-05-06T04:07:06.940Z,100.00
2023-05-06T04:09:28.436Z,100.00
2023-05-06T04:11:49.883Z,100.00
2023-05-06T04:14:11.320Z,98.81
2023-05-06T04:16:32.801Z,97.08
2023-05-06T04:18:55.425Z,95.45
2023-05-06T04:21:18.385Z,94.68
2023-05-06T04:23:39.813Z,94.00
2023-05-06T04:26:01.358Z,93.52
2023-05-06T04:28:23.024Z,94.54
2023-05-06T04:30:47.659Z,93.44
2023-05-06T04:33:09.188Z,92.57
2023-05-06T04:35:30.923Z,91.96
2023-05-06T04:37:53.394Z,93.59
2023-05-06T04:40:14.880Z,92.32
2023-05-06T04:42:36.303Z,93.23
2023-05-06T04:44:59.138Z,92.01
2023-05-06T04:47:20.572Z,91.57
2023-05-06T04:49:42.426Z,93.26
2023-05-06T04:52:04.189Z,91.46
2023-05-06T04:54:25.726Z,91.66
2023-05-06T04:56:47.217Z,92.44
2023-05-06T04:59:08.718Z,91.05
2023-05-06T05:01:31.133Z,91.10
2023-05-06T05:03:52.615Z,91.45
2023-05-06T05:06:14.099Z,90.65
2023-05-06T05:08:35.567Z,89.90
2023-05-06T05:10:57.024Z,88.66
2023-05-06T05:13:19.386Z,88.49
2023-05-06T05:15:40.906Z,88.96
2023-05-06T05:18:02.369Z,88.12
2023-05-06T05:20:23.985Z,87.44
2023-05-06T05:22:45.530Z,86.65
2023-05-06T05:25:08.472Z,86.67
2023-05-06T05:27:30.566Z,85.95
2023-05-06T05:29:52.019Z,85.77
2023-05-06T05:32:13.545Z,85.54
2023-05-06T05:34:35.052Z,85.08
2023-05-06T05:36:59.504Z,85.58
2023-05-06T05:39:21.064Z,84.96
2023-05-06T05:41:42.495Z,85.06
2023-05-06T05:44:04.117Z,84.48
2023-05-06T05:46:25.622Z,84.60
2023-05-06T05:48:47.042Z,83.99
2023-05-06T05:51:08.655Z,84.05
2023-05-06T05:53:30.105Z,86.33
2023-05-06T05:55:51.535Z,87.95
2023-05-06T05:58:13.002Z,88.57
2023-05-06T06:00:34.434Z,90.73
2023-05-06T06:02:55.991Z,90.91
2023-05-06T06:05:17.535Z,91.26
2023-05-06T06:07:39.516Z,91.76
2023-05-06T06:10:01.007Z,91.02
2023-05-06T06:12:23.031Z,90.50
2023-05-06T06:14:48.036Z,90.82
2023-05-06T06:17:09.658Z,90.82
2023-05-06T06:19:31.913Z,92.54
2023-05-06T06:21:53.669Z,90.78
2023-05-06T06:24:15.143Z,90.58
2023-05-06T06:26:36.612Z,91.36
2023-05-06T06:28:58.076Z,90.44
2023-05-06T06:31:19.508Z,87.86
2023-05-06T06:33:40.992Z,86.65
2023-05-06T06:36:02.455Z,86.42
2023-05-06T06:38:23.998Z,87.55
2023-05-06T06:40:45.910Z,87.39
2023-05-06T06:43:07.422Z,86.45
2023-05-06T06:45:29.214Z,84.71
2023-05-06T06:47:50.750Z,84.40
2023-05-06T06:50:12.389Z,83.60
2023-05-06T06:52:35.271Z,83.18
2023-05-06T06:54:56.719Z,82.93
2023-05-06T06:57:18.237Z,80.59
2023-05-06T06:59:39.648Z,78.57
2023-05-06T07:02:02.403Z,78.42
2023-05-06T07:04:25.703Z,78.59
2023-05-06T07:06:47.243Z,77.35
2023-05-06T07:09:08.713Z,76.20
2023-05-06T07:11:30.147Z,73.61
2023-05-06T07:13:51.687Z,73.74
2023-05-06T07:16:13.178Z,72.11
2023-05-06T07:18:34.634Z,74.59
2023-05-06T07:20:56.135Z,75.03
2023-05-06T07:23:17.600Z,74.29
2023-05-06T07:25:39.023Z,74.30
2023-05-06T07:28:00.542Z,74.56
2023-05-06T07:30:23.293Z,73.94
2023-05-06T07:32:45.036Z,72.95
2023-05-06T07:35:06.873Z,72.08
2023-05-06T07:37:28.508Z,75.56
2023-05-06T07:39:49.942Z,74.54
2023-05-06T07:42:13.197Z,74.09
2023-05-06T07:44:36.306Z,74.44
2023-05-06T07:46:57.979Z,75.44
2023-05-06T07:49:19.664Z,77.41
2023-05-06T07:51:42.268Z,74.13
2023-05-06T07:54:03.864Z,73.55
2023-05-06T07:56:25.311Z,74.17
2023-05-06T07:58:48.206Z,73.56
2023-05-06T08:01:09.677Z,73.42
2023-05-06T08:03:31.656Z,72.85
2023-05-06T08:05:53.557Z,74.62
2023-05-06T08:08:15.642Z,74.65
2023-05-06T08:10:37.114Z,74.50
2023-05-06T08:12:58.634Z,74.45
2023-05-06T08:15:20.155Z,72.77
2023-05-06T08:17:41.676Z,75.82
2023-05-06T08:20:03.331Z,72.43
2023-05-06T08:22:24.819Z,72.88
2023-05-06T08:24:46.229Z,65.10
2023-05-06T08:27:07.754Z,68.11
2023-05-06T08:29:29.172Z,66.12
2023-05-06T08:31:50.669Z,67.00
2023-05-06T08:34:12.140Z,67.79
2023-05-06T08:36:33.625Z,65.98
2023-05-06T08:38:55.066Z,63.99
2023-05-06T08:41:18.536Z,64.26
2023-05-06T08:43:44.354Z,62.25
2023-05-06T08:46:05.895Z,59.40
2023-05-06T08:48:27.502Z,61.10
2023-05-06T08:50:49.324Z,59.31
2023-05-06T08:53:14.851Z,62.24
2023-05-06T08:55:37.002Z,62.10
2023-05-06T08:57:59.285Z,59.00
2023-05-06T09:00:20.823Z,59.39
2023-05-06T09:02:43.382Z,57.28
2023-05-06T09:05:05.572Z,55.53
2023-05-06T09:07:27.078Z,54.13
2023-05-06T09:09:49.289Z,54.60
2023-05-06T09:12:12.302Z,56.93
2023-05-06T09:14:33.746Z,55.83
2023-05-06T09:16:55.294Z,54.49
2023-05-06T09:19:18.783Z,55.41
2023-05-06T09:21:42.911Z,55.29
2023-05-06T09:24:06.450Z,56.43
2023-05-06T09:26:29.602Z,55.51
2023-05-06T09:28:51.673Z,59.82
2023-05-06T09:31:15.925Z,52.29
2023-05-06T09:33:37.759Z,52.66
2023-05-06T09:35:59.191Z,52.03
2023-05-06T09:38:21.763Z,52.93
2023-05-06T09:40:43.239Z,52.29
2023-05-06T09:43:05.812Z,51.54
2023-05-06T09:45:29.309Z,46.89
2023-05-06T09:47:53.867Z,46.82
2023-05-06T09:50:15.702Z,46.39
2023-05-06T09:52:37.594Z,46.18
2023-05-06T09:55:00.234Z,47.71
2023-05-06T09:57:22.500Z,47.04
2023-05-06T09:59:44.895Z,48.60
2023-05-06T10:02:06.750Z,45.66
2023-05-06T10:04:31.095Z,47.04
2023-05-06T10:06:55.280Z,46.74
2023-05-06T10:09:18.311Z,45.68
2023-05-06T10:11:40.507Z,44.67
2023-05-06T10:14:02.680Z,45.64
2023-05-06T10:16:24.224Z,44.68
2023-05-06T10:18:46.692Z,45.20
2023-05-06T10:21:19.703Z,45.06
2023-05-06T10:23:45.098Z,44.51
2023-05-06T10:26:10.539Z,43.70
2023-05-06T10:28:33.250Z,43.81
2023-05-06T10:30:58.138Z,43.74
2023-05-06T10:33:22.948Z,45.28
2023-05-06T10:36:03.261Z,44.31
2023-05-06T10:38:34.276Z,45.74
2023-05-06T10:40:56.619Z,44.20
2023-05-06T10:43:31.669Z,43.40
2023-05-06T10:46:05.444Z,44.04
2023-05-06T10:48:27.771Z,42.98
2023-05-06T10:50:49.254Z,41.04
2023-05-06T10:53:10.812Z,41.91
2023-05-06T10:55:34.215Z,42.46
2023-05-06T10:58:16.450Z,40.17
2023-05-06T11:00:38.207Z,41.24
2023-05-06T11:03:07.028Z,39.99
2023-05-06T11:05:28.776Z,40.04
2023-05-06T11:07:52.125Z,41.20
2023-05-06T11:10:13.755Z,40.63
2023-05-06T11:12:55.275Z,41.70
2023-05-06T11:15:40.565Z,38.34
2023-05-06T11:18:28.096Z,39.61
2023-05-06T11:20:50.904Z,38.70
2023-05-06T11:23:12.493Z,41.12
2023-05-06T11:25:42.503Z,39.89
2023-05-06T11:28:10.393Z,38.48
2023-05-06T11:30:31.905Z,38.42
2023-05-06T11:32:55.911Z,39.62
2023-05-06T11:35:18.022Z,37.73
2023-05-06T11:37:42.444Z,37.66
2023-05-06T11:40:13.967Z,38.22
2023-05-06T11:42:36.267Z,37.49
2023-05-06T11:45:01.218Z,36.13
2023-05-06T11:47:23.862Z,35.53
2023-05-06T11:49:45.442Z,35.48
2023-05-06T11:52:12.298Z,36.01
2023-05-06T11:54:35.682Z,35.18
2023-05-06T11:56:58.178Z,35.04
2023-05-06T11:59:31.533Z,34.97
2023-05-06T12:01:52.964Z,34.87
2023-05-06T12:04:14.572Z,35.48
2023-05-06T12:06:36.759Z,36.04
2023-05-06T12:08:58.323Z,36.39
2023-05-06T12:11:19.962Z,33.01
2023-05-06T12:13:41.681Z,31.73
2023-05-06T12:16:04.906Z,33.61
2023-05-06T12:18:27.745Z,35.22
2023-05-06T12:20:49.265Z,36.24
2023-05-06T12:23:12.491Z,35.16
2023-05-06T12:25:34.205Z,36.46
2023-05-06T12:27:58.029Z,34.93
2023-05-06T12:30:30.258Z,34.06
2023-05-06T12:32:59.254Z,32.95
2023-05-06T12:35:31.647Z,31.55
2023-05-06T12:37:53.096Z,30.24
2023-05-06T12:40:18.113Z,27.67
2023-05-06T12:42:39.600Z,27.64
2023-05-06T12:45:13.745Z,26.24
2023-05-06T12:47:35.547Z,26.32
2023-05-06T12:50:07.931Z,25.43
2023-05-06T12:52:30.230Z,23.62
2023-05-06T12:54:55.005Z,23.47
2023-05-06T12:57:16.720Z,22.99
2023-05-06T12:59:38.566Z,22.14
2023-05-06T13:02:00.159Z,21.17
2023-05-06T13:04:22.378Z,21.97
2023-05-06T13:06:43.908Z,20.74
2023-05-06T13:09:05.711Z,21.20
2023-05-06T13:11:28.038Z,21.84
2023-05-06T13:13:49.503Z,21.24
2023-05-06T13:16:11.169Z,21.29
2023-05-06T13:18:32.860Z,22.40
2023-05-06T13:20:54.381Z,21.73
2023-05-06T13:23:17.121Z,22.38
2023-05-06T13:25:51.693Z,22.48
2023-05-06T13:28:17.676Z,21.83
2023-05-06T13:30:39.199Z,21.77
2023-05-06T13:33:01.056Z,22.92
2023-05-06T13:35:22.533Z,23.23
2023-05-06T13:37:43.996Z,22.18
2023-05-06T13:40:06.415Z,21.56
2023-05-06T13:42:27.936Z,21.43
2023-05-06T13:44:49.408Z,22.30
2023-05-06T13:47:10.879Z,21.59
2023-05-06T13:49:32.533Z,22.06
2023-05-06T13:51:53.988Z,20.86
2023-05-06T13:54:15.541Z,20.26
2023-05-06T13:56:37.044Z,19.88
2023-05-06T13:58:58.568Z,18.71
2023-05-06T14:01:24.172Z,19.17
2023-05-06T14:03:45.757Z,18.06
2023-05-06T14:06:08.349Z,16.41
2023-05-06T14:08:29.895Z,17.28
2023-05-06T14:10:51.471Z,17.98
2023-05-06T14:13:12.941Z,19.20
2023-05-06T14:15:34.632Z,20.63
2023-05-06T14:17:56.258Z,21.27
2023-05-06T14:20:17.824Z,20.66
2023-05-06T14:22:42.181Z,20.90
2023-05-06T14:25:03.859Z,22.36
2023-05-06T14:27:25.673Z,23.11
2023-05-06T14:29:47.207Z,21.60
2023-05-06T14:32:09.511Z,21.77
2023-05-06T14:34:30.937Z,22.95
2023-05-06T14:36:52.736Z,22.20
2023-05-06T14:39:14.298Z,22.26
2023-05-06T14:41:35.906Z,22.68
2023-05-06T14:43:57.424Z,22.49
2023-05-06T14:46:18.942Z,21.82
2023-05-06T14:48:40.515Z,22.50
2023-05-06T14:51:02.013Z,22.48
2023-05-06T14:53:23.480Z,21.41
2023-05-06T14:55:45.565Z,20.29
2023-05-06T14:58:07.026Z,19.99
2023-05-06T15:00:28.538Z,19.09
2023-05-06T15:02:49.961Z,19.51
2023-05-06T15:05:12.255Z,19.44
2023-05-06T15:07:34.041Z,19.00
2023-05-06T15:09:55.483Z,19.22
2023-05-06T15:12:16.960Z,19.43
2023-05-06T15:14:39.479Z,18.76
2023-05-06T15:17:01.039Z,19.77
2023-05-06T15:19:22.555Z,19.15
2023-05-06T15:21:44.149Z,19.10
2023-05-06T15:24:06.052Z,19.26
2023-05-06T15:26:27.614Z,19.93
2023-05-06T15:28:49.061Z,19.83
2023-05-06T15:31:10.627Z,19.54
2023-05-06T15:33:32.215Z,19.09
2023-05-06T15:35:53.740Z,18.63
2023-05-06T15:38:15.530Z,18.74
2023-05-06T15:40:40.603Z,19.41
2023-05-06T15:43:02.183Z,19.08
2023-05-06T15:45:23.681Z,19.01
2023-05-06T15:47:45.784Z,19.28
2023-05-06T15:52:32.190Z,20.10
2023-05-06T15:54:58.863Z,20.83
2023-05-06T15:57:20.886Z,20.06
2023-05-06T15:59:42.357Z,21.33
2023-05-06T16:04:28.421Z,21.93
2023-05-06T16:06:50.234Z,21.85
2023-05-06T16:09:11.982Z,20.83
2023-05-06T16:11:33.456Z,21.14
2023-05-06T16:13:55.072Z,20.69
2023-05-06T16:16:16.549Z,21.03
2023-05-06T16:18:38.003Z,21.06
2023-05-06T16:20:59.558Z,21.61
2023-05-06T16:23:21.774Z,21.16
2023-05-06T16:25:43.373Z,21.23
2023-05-06T16:28:05.849Z,21.14
2023-05-06T16:30:27.306Z,20.65
2023-05-06T16:32:49.259Z,20.84
2023-05-06T16:35:10.977Z,21.04
2023-05-06T16:37:32.411Z,20.33
2023-05-06T16:39:53.850Z,20.53
2023-05-06T16:42:15.408Z,20.71
2023-05-06T16:44:36.854Z,20.90
2023-05-06T16:46:58.480Z,20.83
2023-05-06T16:49:21.131Z,21.54
2023-05-06T16:51:42.590Z,22.00
2023-05-06T16:54:04.119Z,22.21
2023-05-06T16:56:32.999Z,22.68
2023-05-06T16:59:01.881Z,23.80
2023-05-06T17:01:23.406Z,23.80
2023-05-06T17:03:45.605Z,25.00
2023-05-06T17:06:07.375Z,23.71
2023-05-06T17:08:28.806Z,24.80
2023-05-06T17:10:50.282Z,24.22
2023-05-06T17:13:11.838Z,24.60
2023-05-06T17:15:33.334Z,24.30
2023-05-06T17:17:54.839Z,25.58
2023-05-06T17:20:16.629Z,27.10
2023-05-06T17:22:38.109Z,27.25
2023-05-06T17:24:59.646Z,27.30
2023-05-06T17:27:21.134Z,27.57
2023-05-06T17:29:42.684Z,28.71
2023-05-06T17:32:06.755Z,29.44
2023-05-06T17:34:28.232Z,29.43
2023-05-06T17:36:49.720Z,29.60
2023-05-06T17:39:11.177Z,29.28
2023-05-06T17:41:33.544Z,28.93
2023-05-06T17:43:55.006Z,29.79
2023-05-06T17:46:19.714Z,29.86
2023-05-06T17:48:41.216Z,30.15
2023-05-06T17:51:03.227Z,29.98
2023-05-06T17:53:47.568Z,30.17
2023-05-06T17:56:09.132Z,30.44
2023-05-06T17:58:30.740Z,30.46
2023-05-06T18:00:52.206Z,31.15
2023-05-06T18:03:13.749Z,31.83
2023-05-06T18:05:35.364Z,32.78
2023-05-06T18:07:56.806Z,32.54
2023-05-06T18:10:19.073Z,32.67
2023-05-06T18:12:40.685Z,33.29
2023-05-06T18:15:02.392Z,33.74
2023-05-06T18:17:24.072Z,33.85
2023-05-06T18:19:45.599Z,34.91
2023-05-06T18:22:07.126Z,35.19
2023-05-06T18:24:28.597Z,35.56
2023-05-06T18:26:50.087Z,36.23
2023-05-06T18:29:11.694Z,36.53
2023-05-06T18:31:33.188Z,37.04
2023-05-06T18:33:54.640Z,37.25
2023-05-06T18:36:16.120Z,37.81
2023-05-06T18:38:37.629Z,37.78
2023-05-06T18:40:59.122Z,37.86
2023-05-06T18:43:20.855Z,38.60
2023-05-06T18:45:42.981Z,38.52
2023-05-06T18:48:05.177Z,38.69
2023-05-06T18:50:26.686Z,39.27
2023-05-06T18:52:48.134Z,39.43
2023-05-06T18:55:09.867Z,39.90
2023-05-06T18:57:31.705Z,40.53
2023-05-06T18:59:53.161Z,40.63
2023-05-06T19:02:14.656Z,40.84
2023-05-06T19:04:36.282Z,41.23
2023-05-06T19:06:57.992Z,41.55
2023-05-06T19:09:20.788Z,41.35
2023-05-06T19:11:42.272Z,41.65
2023-05-06T19:14:03.720Z,41.80
2023-05-06T19:16:25.367Z,42.45
2023-05-06T19:18:47.826Z,42.50
2023-05-06T19:21:12.776Z,42.62
2023-05-06T19:23:34.304Z,42.82
2023-05-06T19:25:55.896Z,43.20
2023-05-06T19:28:17.365Z,43.26
2023-05-06T19:30:38.927Z,43.60
2023-05-06T19:33:01.499Z,43.71
2023-05-06T19:35:23.035Z,44.56
2023-05-06T19:37:44.486Z,44.83
2023-05-06T19:40:07.773Z,44.88
2023-05-06T19:42:29.224Z,44.90
2023-05-06T19:44:50.836Z,46.26
2023-05-06T19:47:13.269Z,45.99
2023-05-06T19:49:34.724Z,45.93
2023-05-06T19:51:56.231Z,46.43
2023-05-06T19:54:19.338Z,46.30
2023-05-06T19:56:40.841Z,46.39
2023-05-06T19:59:02.321Z,47.88
2023-05-06T20:01:24.385Z,48.75
2023-05-06T20:03:46.157Z,49.01
2023-05-06T20:06:07.738Z,48.60
2023-05-06T20:08:29.250Z,48.40
2023-05-06T20:10:50.945Z,48.63
2023-05-06T20:13:12.512Z,49.05
2023-05-06T20:15:35.511Z,48.96
2023-05-06T20:17:57.009Z,50.17
2023-05-06T20:20:19.470Z,51.52
2023-05-06T20:22:41.424Z,51.72
2023-05-06T20:25:15.981Z,50.63
2023-05-06T20:27:37.600Z,50.94
2023-05-06T20:29:59.124Z,52.20
2023-05-06T20:32:20.733Z,52.67
2023-05-06T20:34:42.438Z,53.91
2023-05-06T20:37:04.687Z,53.44
2023-05-06T20:39:26.216Z,54.53
2023-05-06T20:41:47.854Z,53.52
2023-05-06T20:44:09.522Z,56.17
2023-05-06T20:46:32.920Z,55.48
2023-05-06T20:48:54.417Z,56.08
2023-05-06T20:51:16.110Z,55.29
2023-05-06T20:53:38.729Z,55.89
2023-05-06T20:56:00.308Z,56.39
2023-05-06T20:58:21.802Z,56.58
2023-05-06T21:00:43.332Z,55.84
2023-05-06T21:03:04.921Z,56.99
2023-05-06T21:05:26.537Z,56.45
2023-05-06T21:07:47.980Z,57.68
2023-05-06T21:10:11.025Z,58.94
2023-05-06T21:12:33.409Z,59.42
2023-05-06T21:14:54.939Z,60.26
2023-05-06T21:17:16.477Z,60.35
2023-05-06T21:19:38.066Z,60.10
2023-05-06T21:21:59.557Z,59.00
2023-05-06T21:24:21.021Z,59.74
2023-05-06T21:26:42.820Z,60.36
2023-05-06T21:29:04.283Z,60.69
2023-05-06T21:31:26.834Z,60.59
2023-05-06T21:33:54.918Z,59.32
2023-05-06T21:36:16.450Z,61.35
2023-05-06T21:38:37.903Z,61.90
2023-05-06T21:40:59.346Z,62.58
2023-05-06T21:43:20.885Z,61.66
2023-05-06T21:45:42.349Z,62.24
2023-05-06T21:48:03.988Z,61.43
2023-05-06T21:50:25.541Z,61.12
2023-05-06T21:52:47.143Z,60.83
2023-05-06T21:55:09.070Z,60.76
2023-05-06T21:57:30.956Z,60.96
2023-05-06T21:59:52.463Z,60.59
2023-05-06T22:02:14.182Z,62.04
2023-05-06T22:04:35.842Z,64.92
2023-05-06T22:06:57.663Z,63.98
2023-05-06T22:09:20.661Z,63.53
2023-05-06T22:11:42.318Z,65.59
2023-05-06T22:14:04.153Z,64.55
2023-05-06T22:16:25.752Z,66.17
2023-05-06T22:18:47.479Z,64.86
2023-05-06T22:21:09.807Z,64.07
2023-05-06T22:23:31.464Z,63.72
2023-05-06T22:25:52.972Z,63.64
2023-05-06T22:28:14.444Z,63.18
2023-05-06T22:30:36.057Z,63.27
2023-05-06T22:32:57.661Z,63.22
2023-05-06T22:35:19.204Z,63.66
2023-05-06T22:37:40.714Z,63.37
2023-05-06T22:40:02.268Z,63.29
2023-05-06T22:42:26.931Z,66.58
2023-05-06T22:44:48.367Z,67.38
2023-05-06T22:47:09.838Z,66.29
2023-05-06T22:49:31.346Z,65.47
2023-05-06T22:51:52.806Z,65.41
2023-05-06T22:54:14.283Z,65.27
2023-05-06T22:56:35.770Z,65.15
2023-05-06T22:58:57.270Z,65.23
2023-05-06T23:01:18.807Z,64.86
2023-05-06T23:03:40.582Z,64.53
2023-05-06T23:06:03.911Z,66.34
2023-05-06T23:08:25.416Z,67.48
2023-05-06T23:10:47.176Z,68.79
2023-05-06T23:13:08.868Z,70.10
2023-05-06T23:15:30.485Z,69.51
2023-05-06T23:17:51.937Z,68.90
2023-05-06T23:20:13.816Z,70.28
2023-05-06T23:22:35.701Z,72.37
2023-05-06T23:24:57.160Z,72.33
2023-05-06T23:27:18.614Z,70.94
2023-05-06T23:29:40.141Z,70.32
2023-05-06T23:32:01.718Z,69.54
2023-05-06T23:34:23.267Z,69.08
2023-05-06T23:36:44.767Z,68.62
2023-05-06T23:39:06.232Z,68.59
2023-05-06T23:41:27.711Z,68.47
2023-05-06T23:43:49.213Z,68.94
2023-05-06T23:46:11.268Z,70.67
2023-05-06T23:48:33.670Z,69.80
2023-05-06T23:50:55.169Z,70.81
2023-05-06T23:53:16.736Z,72.46
2023-05-06T23:55:38.269Z,71.11
2023-05-06T23:57:59.724Z,71.14
